createdAt,value
2019-02-24T00:01:11.855Z,66.90
2019-02-24T00:03:40.259Z,65.90
2019-02-24T00:06:08.693Z,67.30
2019-02-24T00:08:37.097Z,65.00
2019-02-24T00:11:05.527Z,66.20
2019-02-24T00:13:34.027Z,63.40
2019-02-24T00:16:02.444Z,63.00
2019-02-24T00:18:30.937Z,61.30
2019-02-24T00:20:59.349Z,62.10
2019-02-24T00:23:27.775Z,63.70
2019-02-24T00:25:56.188Z,65.00
2019-02-24T00:28:24.615Z,65.00
2019-02-24T00:30:53.022Z,62.50
2019-02-24T00:33:21.453Z,63.40
2019-02-24T00:35:49.868Z,66.30
2019-02-24T00:38:18.298Z,70.00
2019-02-24T00:40:46.700Z,68.80
2019-02-24T00:43:15.123Z,68.30
2019-02-24T00:45:44.014Z,71.00
2019-02-24T00:48:12.439Z,72.50
2019-02-24T00:50:40.877Z,73.00
2019-02-24T00:53:09.277Z,71.50
2019-02-24T00:55:37.675Z,69.40
2019-02-24T00:58:06.146Z,70.00
2019-02-24T01:00:34.554Z,70.10
2019-02-24T01:03:02.978Z,69.60
2019-02-24T01:05:31.409Z,70.00
2019-02-24T01:07:59.833Z,70.00
2019-02-24T01:10:28.648Z,72.00
2019-02-24T01:12:57.053Z,67.80
2019-02-24T01:15:25.465Z,70.90
2019-02-24T01:17:53.889Z,71.30
2019-02-24T01:20:22.297Z,70.80
2019-02-24T01:22:50.701Z,71.20
2019-02-24T01:25:19.138Z,69.70
2019-02-24T01:27:47.552Z,70.20
2019-02-24T01:30:16.098Z,70.00
2019-02-24T01:32:44.525Z,71.40
2019-02-24T01:35:13.004Z,74.20
2019-02-24T01:37:41.422Z,74.80
2019-02-24T01:40:09.909Z,76.60
2019-02-24T01:42:38.329Z,76.40
2019-02-24T01:45:07.965Z,77.90
2019-02-24T01:47:36.403Z,78.30
2019-02-24T01:50:07.759Z,78.40
2019-02-24T01:52:36.161Z,79.10
2019-02-24T01:55:04.914Z,79.40
2019-02-24T01:57:33.331Z,81.30
2019-02-24T02:00:01.764Z,81.70
2019-02-24T02:02:30.195Z,83.30
2019-02-24T02:04:58.642Z,85.00
2019-02-24T02:07:27.130Z,83.40
2019-02-24T02:09:55.554Z,84.30
2019-02-24T02:12:23.972Z,87.00
2019-02-24T02:14:52.394Z,87.40
2019-02-24T02:17:20.812Z,90.00
2019-02-24T02:19:49.246Z,90.00
2019-02-24T02:22:18.052Z,89.80
2019-02-24T02:24:46.488Z,90.70
2019-02-24T02:27:15.024Z,91.00
2019-02-24T02:29:43.420Z,91.20
2019-02-24T02:32:11.861Z,90.40
2019-02-24T02:34:40.285Z,91.40
2019-02-24T02:37:08.693Z,91.90
2019-02-24T02:39:37.176Z,92.50
2019-02-24T02:42:05.595Z,93.40
2019-02-24T02:44:34.002Z,93.50
2019-02-24T02:47:02.450Z,93.20
2019-02-24T02:49:30.963Z,93.70
2019-02-24T02:51:59.369Z,93.80
2019-02-24T02:54:27.804Z,93.50
2019-02-24T02:56:56.211Z,94.40
2019-02-24T02:59:24.643Z,94.80
2019-02-24T03:01:53.042Z,95.50
2019-02-24T03:04:21.464Z,95.70
2019-02-24T03:07:06.743Z,96.20
2019-02-24T03:09:35.161Z,96.60
2019-02-24T03:12:03.668Z,96.70
2019-02-24T03:14:32.122Z,96.40
2019-02-24T03:17:00.533Z,95.70
2019-02-24T03:19:28.942Z,96.00
2019-02-24T03:21:57.436Z,97.00
2019-02-24T03:24:25.868Z,95.50
2019-02-24T03:26:54.289Z,96.80
2019-02-24T03:29:22.707Z,96.70
2019-02-24T03:31:51.134Z,97.90
2019-02-24T03:34:19.551Z,98.30
2019-02-24T03:36:47.960Z,99.30
2019-02-24T03:39:16.409Z,99.10
2019-02-24T03:41:44.808Z,99.40
2019-02-24T03:44:13.233Z,99.90
2019-02-24T03:46:41.667Z,99.90
2019-02-24T03:49:10.125Z,99.90
2019-02-24T03:51:38.571Z,99.90
2019-02-24T03:54:06.979Z,99.90
2019-02-24T03:56:35.476Z,99.90
2019-02-24T03:59:14.407Z,99.90
2019-02-24T04:01:34.036Z,99.90
2019-02-24T04:04:03.385Z,99.90
2019-02-24T04:06:31.874Z,99.90
2019-02-24T04:09:00.291Z,99.90
2019-02-24T04:11:28.790Z,99.90
2019-02-24T04:13:57.234Z,99.90
2019-02-24T04:16:25.673Z,99.90
2019-02-24T04:18:54.088Z,99.90
2019-02-24T04:21:22.559Z,99.90
2019-02-24T04:23:51.012Z,99.90
2019-02-24T04:26:19.438Z,99.90
2019-02-24T04:28:47.878Z,99.90
2019-02-24T04:31:16.298Z,99.90
2019-02-24T04:33:44.691Z,99.90
2019-02-24T04:36:13.105Z,99.90
2019-02-24T04:38:41.541Z,99.90
2019-02-24T04:41:09.961Z,99.90
2019-02-24T04:43:38.375Z,99.90
2019-02-24T04:46:06.788Z,99.90
2019-02-24T04:48:35.234Z,99.90
2019-02-24T04:51:03.630Z,99.90
2019-02-24T04:53:32.053Z,99.90
2019-02-24T04:56:00.474Z,99.90
2019-02-24T04:58:28.940Z,99.90
2019-02-24T05:00:57.349Z,99.90
2019-02-24T05:03:25.772Z,99.90
2019-02-24T05:05:54.183Z,99.90
2019-02-24T05:08:22.595Z,99.90
2019-02-24T05:10:51.035Z,99.90
2019-02-24T05:13:19.459Z,99.90
2019-02-24T05:15:47.856Z,99.90
2019-02-24T05:18:16.290Z,99.90
2019-02-24T05:20:44.734Z,99.90
2019-02-24T05:23:13.140Z,99.90
2019-02-24T05:25:41.582Z,99.90
2019-02-24T05:28:10.011Z,99.90
2019-02-24T05:30:38.411Z,99.90
2019-02-24T05:33:06.838Z,99.90
2019-02-24T05:35:35.240Z,99.90
2019-02-24T05:38:03.731Z,99.90
2019-02-24T05:40:32.426Z,99.90
2019-02-24T05:43:00.987Z,99.90
2019-02-24T05:45:29.462Z,99.90
2019-02-24T05:47:57.882Z,99.90
2019-02-24T05:50:26.320Z,99.90
2019-02-24T05:52:54.716Z,99.90
2019-02-24T05:55:23.157Z,99.90
2019-02-24T05:57:51.578Z,99.90
2019-02-24T06:00:19.982Z,99.90
2019-02-24T06:02:48.414Z,99.90
2019-02-24T06:05:16.843Z,99.90
2019-02-24T06:07:45.264Z,99.90
2019-02-24T06:10:13.720Z,99.90
2019-02-24T06:12:42.121Z,99.90
2019-02-24T06:15:10.556Z,99.90
2019-02-24T06:17:38.978Z,99.90
2019-02-24T06:20:07.560Z,99.90
2019-02-24T06:22:35.987Z,99.90
2019-02-24T06:25:05.345Z,99.90
2019-02-24T06:27:33.752Z,99.90
2019-02-24T06:30:04.933Z,99.90
2019-02-24T06:32:32.308Z,99.90
2019-02-24T06:35:00.724Z,99.90
2019-02-24T06:37:29.177Z,99.90
2019-02-24T06:39:57.576Z,99.90
2019-02-24T06:42:25.993Z,99.90
2019-02-24T06:44:54.421Z,99.90
2019-02-24T06:47:22.825Z,99.90
2019-02-24T06:49:51.256Z,99.90
2019-02-24T06:52:21.319Z,99.90
2019-02-24T06:54:49.734Z,99.90
2019-02-24T06:57:18.140Z,99.90
2019-02-24T06:59:46.601Z,99.90
2019-02-24T07:02:15.013Z,99.90
2019-02-24T07:04:43.450Z,99.90
2019-02-24T07:07:11.896Z,99.90
2019-02-24T07:09:40.311Z,99.90
2019-02-24T07:12:08.736Z,99.90
2019-02-24T07:14:37.156Z,99.90
2019-02-24T07:17:05.603Z,99.90
2019-02-24T07:19:35.302Z,99.90
2019-02-24T07:22:03.923Z,99.90
2019-02-24T07:24:32.399Z,99.90
2019-02-24T07:27:00.936Z,99.90
2019-02-24T07:29:29.371Z,99.90
2019-02-24T07:31:57.777Z,99.90
2019-02-24T07:34:26.184Z,99.90
2019-02-24T07:36:54.629Z,99.90
2019-02-24T07:39:23.069Z,99.90
2019-02-24T07:41:51.482Z,99.90
2019-02-24T07:44:19.906Z,99.90
2019-02-24T07:46:48.325Z,99.90
2019-02-24T07:49:16.761Z,99.90
2019-02-24T07:51:45.163Z,99.90
2019-02-24T07:54:13.621Z,99.90
2019-02-24T07:56:42.020Z,99.90
2019-02-24T07:59:10.473Z,99.90
2019-02-24T08:01:38.962Z,99.90
2019-02-24T08:04:07.365Z,99.90
2019-02-24T08:06:35.789Z,99.90
2019-02-24T08:09:05.012Z,99.90
2019-02-24T08:11:33.416Z,99.90
2019-02-24T08:14:01.835Z,99.90
2019-02-24T08:16:30.248Z,99.90
2019-02-24T08:18:58.678Z,99.90
2019-02-24T08:21:27.087Z,99.90
2019-02-24T08:23:55.513Z,99.90
2019-02-24T08:26:23.921Z,99.90
2019-02-24T08:28:52.342Z,99.90
2019-02-24T08:31:20.766Z,99.90
2019-02-24T08:33:49.189Z,99.90
2019-02-24T08:36:17.674Z,99.90
2019-02-24T08:38:46.084Z,99.90
2019-02-24T08:41:14.504Z,99.90
2019-02-24T08:43:42.971Z,99.90
2019-02-24T08:46:11.406Z,99.90
2019-02-24T08:48:39.854Z,99.90
2019-02-24T08:51:08.281Z,99.90
2019-02-24T08:53:36.694Z,99.90
2019-02-24T08:56:05.115Z,99.90
2019-02-24T08:58:33.538Z,99.90
2019-02-24T09:01:01.958Z,99.90
2019-02-24T09:03:30.391Z,99.90
2019-02-24T09:06:02.094Z,99.90
2019-02-24T09:08:30.512Z,99.90
2019-02-24T09:10:58.964Z,99.90
2019-02-24T09:13:27.384Z,98.70
2019-02-24T09:15:55.803Z,97.90
2019-02-24T09:18:24.299Z,98.40
2019-02-24T09:20:52.744Z,98.50
2019-02-24T09:23:21.169Z,97.40
2019-02-24T09:25:53.528Z,97.10
2019-02-24T09:28:21.934Z,96.60
2019-02-24T09:30:50.342Z,95.80
2019-02-24T09:33:18.780Z,96.40
2019-02-24T09:35:47.220Z,97.20
2019-02-24T09:38:15.636Z,96.10
2019-02-24T09:40:46.093Z,95.60
2019-02-24T09:43:14.525Z,95.20
2019-02-24T09:45:42.968Z,95.00
2019-02-24T09:48:11.383Z,94.60
2019-02-24T09:50:39.823Z,95.80
2019-02-24T09:53:08.330Z,95.60
2019-02-24T09:55:39.680Z,95.40
2019-02-24T09:58:08.098Z,94.20
2019-02-24T10:00:36.589Z,89.70
2019-02-24T10:03:05.020Z,90.60
2019-02-24T10:05:33.519Z,91.40
2019-02-24T10:08:01.916Z,90.50
2019-02-24T10:10:30.435Z,90.20
2019-02-24T10:12:58.976Z,88.00
2019-02-24T10:15:27.423Z,75.90
2019-02-24T10:17:58.908Z,73.00
2019-02-24T10:20:27.373Z,69.80
2019-02-24T10:22:55.793Z,70.90
2019-02-24T10:25:24.215Z,68.10
2019-02-24T10:27:52.638Z,66.40
2019-02-24T10:30:21.110Z,64.40
2019-02-24T10:32:49.524Z,65.80
2019-02-24T10:35:17.943Z,63.50
2019-02-24T10:37:46.375Z,62.70
2019-02-24T10:40:16.070Z,60.00
2019-02-24T10:42:44.491Z,59.10
2019-02-24T10:45:16.816Z,58.30
2019-02-24T10:47:45.318Z,57.60
2019-02-24T10:50:15.752Z,56.80
2019-02-24T10:52:44.299Z,57.90
2019-02-24T10:55:13.066Z,57.20
2019-02-24T10:57:41.560Z,57.20
2019-02-24T11:00:12.803Z,58.60
2019-02-24T11:02:41.218Z,57.30
2019-02-24T11:05:09.960Z,57.30
2019-02-24T11:07:38.365Z,56.80
2019-02-24T11:10:08.770Z,57.80
2019-02-24T11:12:37.171Z,57.00
2019-02-24T11:15:08.078Z,57.90
2019-02-24T11:17:36.524Z,57.50
2019-02-24T11:20:08.134Z,57.70
2019-02-24T11:22:36.566Z,55.10
2019-02-24T11:25:08.834Z,56.20
2019-02-24T11:27:37.262Z,55.40
2019-02-24T11:30:08.450Z,55.90
2019-02-24T11:32:36.914Z,54.80
2019-02-24T11:35:10.928Z,55.40
2019-02-24T11:37:39.411Z,52.90
2019-02-24T11:40:13.761Z,52.40
2019-02-24T11:42:42.178Z,50.30
2019-02-24T11:45:11.525Z,50.30
2019-02-24T11:47:39.982Z,49.70
2019-02-24T11:50:09.861Z,49.70
2019-02-24T11:52:38.265Z,49.50
2019-02-24T11:55:08.239Z,49.30
2019-02-24T11:57:36.651Z,50.40
2019-02-24T12:00:13.068Z,49.70
2019-02-24T12:02:41.977Z,49.40
2019-02-24T12:05:10.786Z,49.70
2019-02-24T12:07:39.229Z,50.80
2019-02-24T12:10:10.743Z,50.20
2019-02-24T12:12:39.221Z,50.20
2019-02-24T12:15:14.465Z,49.00
2019-02-24T12:17:42.869Z,49.00
2019-02-24T12:20:13.295Z,50.60
2019-02-24T12:22:41.694Z,51.70
2019-02-24T12:25:11.185Z,51.80
2019-02-24T12:27:39.600Z,50.90
2019-02-24T12:30:11.225Z,52.70
2019-02-24T12:32:39.643Z,51.30
2019-02-24T12:35:08.131Z,52.70
2019-02-24T12:37:36.557Z,52.00
2019-02-24T12:40:08.286Z,51.40
2019-02-24T12:42:36.715Z,51.10
2019-02-24T12:45:07.315Z,51.60
2019-02-24T12:47:35.721Z,51.60
2019-02-24T12:50:07.072Z,50.80
2019-02-24T12:52:35.533Z,51.50
2019-02-24T12:55:04.892Z,51.60
2019-02-24T12:57:33.371Z,51.00
2019-02-24T13:00:01.802Z,51.60
2019-02-24T13:02:30.212Z,51.20
2019-02-24T13:04:58.622Z,51.70
2019-02-24T13:07:27.047Z,51.10
2019-02-24T13:09:55.535Z,50.70
2019-02-24T13:12:24.534Z,51.60
2019-02-24T13:14:52.999Z,50.60
2019-02-24T13:17:21.587Z,50.90
2019-02-24T13:19:50.004Z,49.70
2019-02-24T13:22:18.431Z,50.40
2019-02-24T13:24:47.713Z,50.60
2019-02-24T13:27:16.202Z,48.80
2019-02-24T13:29:44.648Z,49.50
2019-02-24T13:32:15.117Z,48.90
2019-02-24T13:34:43.197Z,48.60
2019-02-24T13:37:11.631Z,50.20
2019-02-24T13:39:40.048Z,48.90
2019-02-24T13:42:08.540Z,49.20
2019-02-24T13:44:36.954Z,55.30
2019-02-24T13:47:05.391Z,54.80
2019-02-24T13:49:33.838Z,65.00
2019-02-24T13:52:02.290Z,58.40
2019-02-24T13:54:32.245Z,58.60
2019-02-24T13:57:00.759Z,58.00
2019-02-24T13:59:29.219Z,55.70
2019-02-24T14:01:57.623Z,55.90
2019-02-24T14:04:26.123Z,56.70
2019-02-24T14:06:54.585Z,55.00
2019-02-24T14:09:23.007Z,51.80
2019-02-24T14:11:51.474Z,52.80
2019-02-24T14:14:19.980Z,53.70
2019-02-24T14:16:48.422Z,52.00
2019-02-24T14:19:16.855Z,50.60
2019-02-24T14:21:45.261Z,50.70
2019-02-24T14:24:13.705Z,52.00
2019-02-24T14:26:42.121Z,49.20
2019-02-24T14:29:10.562Z,48.30
2019-02-24T14:31:38.980Z,48.40
2019-02-24T14:34:07.446Z,50.80
2019-02-24T14:36:35.878Z,49.60
2019-02-24T14:39:05.233Z,50.90
2019-02-24T14:41:33.704Z,51.60
2019-02-24T14:44:02.112Z,51.00
2019-02-24T14:46:30.554Z,51.90
2019-02-24T14:48:58.977Z,56.30
2019-02-24T14:51:28.381Z,58.50
2019-02-24T14:53:56.852Z,59.40
2019-02-24T14:56:25.290Z,59.40
2019-02-24T14:58:53.707Z,59.60
2019-02-24T15:01:22.160Z,62.00
2019-02-24T15:03:50.597Z,63.50
2019-02-24T15:06:19.967Z,63.30
2019-02-24T15:08:48.411Z,64.10
2019-02-24T15:11:16.844Z,64.50
2019-02-24T15:13:45.246Z,66.00
2019-02-24T15:16:13.676Z,67.60
2019-02-24T15:18:42.117Z,67.50
2019-02-24T15:21:10.517Z,65.10
2019-02-24T15:23:38.929Z,65.50
2019-02-24T15:26:07.368Z,68.00
2019-02-24T15:28:35.932Z,65.80
2019-02-24T15:31:04.431Z,68.10
2019-02-24T15:33:32.842Z,68.30
2019-02-24T15:36:01.270Z,73.30
2019-02-24T15:38:29.677Z,70.50
2019-02-24T15:40:58.212Z,71.40
2019-02-24T15:43:26.638Z,72.60
2019-02-24T15:45:55.047Z,70.50
2019-02-24T15:48:23.455Z,71.60
2019-02-24T15:50:51.895Z,74.00
2019-02-24T15:53:20.313Z,76.30
2019-02-24T15:55:48.746Z,77.60
2019-02-24T15:58:17.895Z,79.50
2019-02-24T16:00:46.577Z,80.30
2019-02-24T16:03:15.013Z,81.10
2019-02-24T16:05:43.425Z,83.90
2019-02-24T16:08:11.872Z,84.50
2019-02-24T16:10:40.282Z,85.50
2019-02-24T16:13:16.620Z,86.30
2019-02-24T16:15:38.834Z,87.70
2019-02-24T16:18:07.245Z,88.40
2019-02-24T16:20:37.114Z,89.70
2019-02-24T16:23:05.623Z,90.60
2019-02-24T16:25:34.059Z,91.90
2019-02-24T16:28:02.538Z,91.10
2019-02-24T16:30:30.947Z,91.20
2019-02-24T16:32:59.435Z,91.80
2019-02-24T16:35:27.861Z,92.20
2019-02-24T16:37:56.270Z,93.20
2019-02-24T16:40:27.198Z,93.30
2019-02-24T16:42:55.605Z,93.70
2019-02-24T16:45:24.187Z,94.20
2019-02-24T16:47:52.593Z,94.90
2019-02-24T16:50:21.848Z,95.40
2019-02-24T16:52:50.274Z,95.40
2019-02-24T16:55:18.774Z,95.80
2019-02-24T16:57:47.746Z,96.50
2019-02-24T17:00:25.255Z,96.70
2019-02-24T17:02:53.754Z,97.00
2019-02-24T17:05:22.203Z,97.40
2019-02-24T17:07:50.621Z,97.70
2019-02-24T17:10:21.251Z,98.50
2019-02-24T17:12:49.694Z,99.40
2019-02-24T17:15:18.105Z,99.70
2019-02-24T17:17:46.533Z,99.90
2019-02-24T17:20:17.651Z,99.90
2019-02-24T17:22:46.139Z,99.90
2019-02-24T17:25:14.576Z,99.90
2019-02-24T17:27:42.990Z,99.90
2019-02-24T17:30:15.801Z,99.90
2019-02-24T17:32:44.307Z,99.90
2019-02-24T17:35:13.466Z,99.90
2019-02-24T17:37:42.027Z,99.90
2019-02-24T17:40:12.851Z,99.90
2019-02-24T17:42:41.258Z,99.90
2019-02-24T17:45:13.569Z,99.90
2019-02-24T17:47:42.057Z,99.90
2019-02-24T17:50:12.405Z,99.90
2019-02-24T17:52:40.905Z,99.90
2019-02-24T17:55:11.820Z,99.90
2019-02-24T17:57:40.270Z,99.90
2019-02-24T18:00:25.157Z,99.90
2019-02-24T18:02:53.645Z,99.90
2019-02-24T18:05:22.063Z,99.90
2019-02-24T18:07:50.504Z,99.90
2019-02-24T18:10:18.986Z,99.90
2019-02-24T18:12:47.415Z,99.90
2019-02-24T18:15:15.890Z,99.90
2019-02-24T18:17:44.284Z,99.90
2019-02-24T18:20:18.608Z,99.90
2019-02-24T18:22:47.071Z,99.90
2019-02-24T18:25:15.631Z,99.90
2019-02-24T18:27:44.062Z,99.90
2019-02-24T18:30:23.851Z,99.90
2019-02-24T18:32:52.284Z,99.90
2019-02-24T18:35:21.670Z,99.90
2019-02-24T18:37:50.073Z,99.90
2019-02-24T18:40:18.547Z,99.90
2019-02-24T18:42:47.044Z,99.90
2019-02-24T18:45:15.657Z,99.90
2019-02-24T18:47:44.303Z,99.90
2019-02-24T18:50:20.333Z,99.90
2019-02-24T18:52:48.752Z,99.90
2019-02-24T18:55:17.167Z,99.90
2019-02-24T18:57:45.604Z,99.90
2019-02-24T19:00:24.214Z,99.90
2019-02-24T19:02:54.806Z,99.90
2019-02-24T19:05:22.861Z,99.90
2019-02-24T19:07:51.283Z,99.90
2019-02-24T19:10:21.571Z,99.90
2019-02-24T19:12:50.256Z,99.90
2019-02-24T19:18:59.402Z,99.90
2019-02-24T19:21:27.889Z,99.90
2019-02-24T19:23:56.413Z,99.90
2019-02-24T19:26:24.808Z,99.90
2019-02-24T19:28:53.240Z,99.90
2019-02-24T19:31:21.648Z,99.90
2019-02-24T19:33:50.102Z,99.90
2019-02-24T19:36:18.515Z,99.90
2019-02-24T19:38:46.929Z,99.90
2019-02-24T19:41:15.370Z,99.90
2019-02-24T19:43:43.789Z,99.90
2019-02-24T19:46:12.259Z,99.90
2019-02-24T19:48:42.194Z,99.90
2019-02-24T19:51:10.956Z,99.90
2019-02-24T19:53:39.358Z,99.90
2019-02-24T19:56:07.806Z,99.90
2019-02-24T19:58:36.220Z,99.90
2019-02-24T20:01:04.693Z,99.90
2019-02-24T20:03:33.112Z,99.90
2019-02-24T20:06:01.550Z,99.90
2019-02-24T20:08:29.983Z,99.90
2019-02-24T20:10:58.387Z,99.90
2019-02-24T20:13:26.815Z,99.90
2019-02-24T20:15:55.244Z,99.90
2019-02-24T20:18:23.657Z,99.90
2019-02-24T20:20:52.079Z,99.90
2019-02-24T20:23:20.510Z,99.90
2019-02-24T20:25:48.912Z,99.90
2019-02-24T20:28:17.372Z,99.90
2019-02-24T20:30:45.780Z,99.90
2019-02-24T20:33:14.228Z,99.90
2019-02-24T20:35:42.639Z,99.90
2019-02-24T20:38:11.044Z,99.90
2019-02-24T20:40:39.479Z,99.90
2019-02-24T20:43:07.919Z,99.90
2019-02-24T20:45:36.322Z,99.90
2019-02-24T20:48:04.893Z,99.90
2019-02-24T20:50:34.651Z,99.90
2019-02-24T20:53:03.294Z,99.90
2019-02-24T20:55:31.737Z,99.90
2019-02-24T20:58:00.161Z,99.90
2019-02-24T21:00:44.118Z,99.90
2019-02-24T21:03:12.534Z,99.90
2019-02-24T21:05:41.830Z,99.90
2019-02-24T21:08:10.260Z,99.90
2019-02-24T21:10:38.691Z,99.90
2019-02-24T21:13:07.109Z,99.90
2019-02-24T21:15:35.527Z,99.90
2019-02-24T21:18:04.417Z,99.90
2019-02-24T21:20:34.456Z,99.90
2019-02-24T21:23:02.883Z,99.90
2019-02-24T21:25:31.290Z,99.90
2019-02-24T21:27:59.762Z,99.90
2019-02-24T21:30:28.229Z,99.90
2019-02-24T21:32:56.790Z,99.90
2019-02-24T21:35:25.220Z,99.90
2019-02-24T21:37:53.714Z,99.90
2019-02-24T21:40:23.630Z,99.90
2019-02-24T21:42:52.307Z,99.90
2019-02-24T21:45:27.856Z,99.90
2019-02-24T21:47:56.312Z,99.90
2019-02-24T21:50:24.714Z,99.90
2019-02-24T21:52:53.179Z,99.90
2019-02-24T21:55:22.542Z,99.90
2019-02-24T21:57:50.945Z,99.90
2019-02-24T22:00:25.383Z,99.90
2019-02-24T22:02:53.792Z,99.90
2019-02-24T22:05:22.211Z,99.90
2019-02-24T22:07:50.626Z,99.90
2019-02-24T22:10:19.073Z,99.90
2019-02-24T22:12:47.499Z,99.90
2019-02-24T22:15:20.878Z,99.90
2019-02-24T22:17:49.321Z,99.90
2019-02-24T22:20:17.889Z,99.90
2019-02-24T22:22:46.384Z,99.90
2019-02-24T22:25:15.345Z,99.90
2019-02-24T22:27:44.027Z,99.90
2019-02-24T22:30:21.161Z,99.90
2019-02-24T22:32:49.667Z,99.90
2019-02-24T22:35:18.214Z,99.90
2019-02-24T22:37:46.621Z,99.90
2019-02-24T22:40:16.949Z,99.90
2019-02-24T22:42:46.341Z,99.90
2019-02-24T22:45:21.440Z,99.90
2019-02-24T22:47:49.912Z,99.90
2019-02-24T22:50:18.486Z,99.90
2019-02-24T22:52:46.978Z,99.90
2019-02-24T22:55:16.832Z,99.90
2019-02-24T22:57:45.227Z,99.90
2019-02-24T23:00:45.334Z,99.90
2019-02-24T23:03:13.812Z,99.90
2019-02-24T23:05:42.242Z,99.90
2019-02-24T23:08:10.654Z,99.90
2019-02-24T23:10:39.125Z,99.90
2019-02-24T23:13:07.623Z,99.90
2019-02-24T23:15:36.036Z,99.90
2019-02-24T23:18:04.512Z,99.90
2019-02-24T23:20:32.994Z,99.90
2019-02-24T23:23:01.423Z,99.90
2019-02-24T23:25:29.822Z,99.90
2019-02-24T23:27:58.250Z,99.90
2019-02-24T23:30:26.725Z,99.90
2019-02-24T23:32:55.162Z,99.90
2019-02-24T23:35:23.585Z,99.90
2019-02-24T23:37:51.998Z,99.90
2019-02-24T23:40:20.408Z,99.90
2019-02-24T23:42:48.915Z,99.90
2019-02-24T23:45:17.346Z,99.90
2019-02-24T23:47:45.752Z,99.90
2019-02-24T23:50:14.237Z,99.90
2019-02-24T23:52:42.664Z,99.90
2019-02-24T23:55:11.550Z,99.90
2019-02-24T23:57:40.007Z,99.90
